Time;durP1;ratioP1;P1;durP2;ratioP2;P2;SDS_P1;SDS_P2;PMS_P1;PMS_P2;Temp;Humidity;BMP_temperature;BMP_pressure;BME280_temperature;BME280_humidity;BME280_pressure;Samples;Min_cycle;Max_cycle;Signal;HPM_P1;HPM_P2
2023/08/10 00:00:16;;;;;;;8.35;2.30;;;14.80;99.90;;;;;;5029735;28;20092;-71
2023/08/10 00:02:44;;;;;;;7.55;1.83;;;14.80;99.90;;;;;;5035973;28;20080;-71
2023/08/10 00:05:10;;;;;;;7.40;2.10;;;14.80;99.90;;;;;;5033253;28;20046;-71
2023/08/10 00:07:36;;;;;;;5.53;1.60;;;14.80;99.90;;;;;;5033303;28;20045;-72
2023/08/10 00:10:03;;;;;;;5.25;1.63;;;14.80;99.90;;;;;;5033856;28;20314;-71
2023/08/10 00:12:29;;;;;;;6.38;1.80;;;14.80;99.90;;;;;;5032787;28;20059;-72
2023/08/10 00:14:55;;;;;;;7.15;1.70;;;14.80;99.90;;;;;;5032015;28;20298;-71
2023/08/10 00:17:20;;;;;;;8.52;1.83;;;14.70;99.90;;;;;;5031041;28;20032;-71
2023/08/10 00:19:46;;;;;;;5.53;1.75;;;14.70;99.90;;;;;;5031079;28;20048;-71
2023/08/10 00:22:13;;;;;;;6.75;2.13;;;14.60;99.90;;;;;;5031205;28;20053;-71
2023/08/10 00:24:39;;;;;;;4.55;1.80;;;14.60;99.90;;;;;;5031841;28;20046;-71
2023/08/10 00:27:06;;;;;;;8.00;1.70;;;14.60;99.90;;;;;;5031735;28;20086;-71
2023/08/10 00:29:32;;;;;;;7.90;2.50;;;14.50;99.90;;;;;;5031014;28;20095;-70
2023/08/10 00:31:58;;;;;;;9.85;2.10;;;14.50;99.90;;;;;;5034006;28;20073;-71
2023/08/10 00:34:24;;;;;;;8.57;1.80;;;14.50;99.90;;;;;;5032888;28;20043;-71
2023/08/10 00:36:49;;;;;;;6.25;2.05;;;14.50;99.90;;;;;;5020465;28;20500;-71
2023/08/10 00:39:17;;;;;;;5.15;1.65;;;14.50;99.90;;;;;;5032281;28;20048;-71
2023/08/10 00:41:43;;;;;;;8.25;2.10;;;14.50;99.90;;;;;;5031861;28;20041;-71
2023/08/10 00:44:09;;;;;;;9.05;1.98;;;14.50;99.90;;;;;;5030378;28;20102;-71
2023/08/10 00:46:36;;;;;;;10.48;2.30;;;14.40;99.90;;;;;;5019506;28;20049;-71
2023/08/10 00:49:03;;;;;;;8.15;1.90;;;14.40;99.90;;;;;;5064977;28;20046;-71
2023/08/10 00:51:29;;;;;;;7.43;2.00;;;14.40;99.90;;;;;;5032606;28;20072;-71
2023/08/10 00:53:55;;;;;;;6.90;1.70;;;14.40;99.90;;;;;;5032553;28;20128;-71
2023/08/10 00:56:21;;;;;;;5.22;1.73;;;14.40;99.90;;;;;;5032562;28;20041;-72
2023/08/10 00:58:48;;;;;;;7.55;2.40;;;14.30;99.90;;;;;;5019327;28;20130;-72
2023/08/10 01:01:14;;;;;;;7.43;1.80;;;14.30;99.90;;;;;;5030722;28;20434;-71
2023/08/10 01:03:40;;;;;;;8.05;2.10;;;14.30;99.90;;;;;;5047995;28;20086;-72
2023/08/10 01:06:29;;;;;;;10.18;2.10;;;14.30;99.90;;;;;;5035914;28;20194;-71
2023/08/10 01:09:16;;;;;;;6.07;1.98;;;14.30;99.90;;;;;;5030522;28;20049;-72
2023/08/10 01:11:53;;;;;;;6.55;2.15;;;14.30;99.90;;;;;;5030522;28;20122;-71
2023/08/10 01:14:44;;;;;;;5.63;2.10;;;14.30;99.90;;;;;;5035954;28;20045;-72
2023/08/10 01:17:18;;;;;;;9.27;2.45;;;14.30;99.90;;;;;;5031676;28;20045;-73
2023/08/10 01:19:46;;;;;;;6.15;2.10;;;14.30;99.90;;;;;;5030225;28;20042;-72
2023/08/10 01:22:25;;;;;;;10.45;2.13;;;14.20;99.90;;;;;;5030585;28;20176;-72
2023/08/10 01:25:08;;;;;;;6.05;2.08;;;14.20;99.90;;;;;;5032014;28;20036;-74
2023/08/10 01:27:35;;;;;;;6.80;1.92;;;14.20;99.90;;;;;;5035859;28;20076;-73
2023/08/10 01:30:03;;;;;;;4.72;1.85;;;14.20;99.90;;;;;;5032934;28;20052;-72
2023/08/10 01:32:30;;;;;;;7.85;2.05;;;14.20;99.90;;;;;;5014499;28;20694;-73
2023/08/10 01:34:57;;;;;;;8.45;2.20;;;14.20;99.90;;;;;;5031136;28;20078;-72
2023/08/10 01:37:23;;;;;;;10.60;2.85;;;14.20;99.90;;;;;;5031415;28;20440;-72
2023/08/10 01:39:49;;;;;;;9.48;2.30;;;14.20;99.90;;;;;;5014789;28;20125;-72
2023/08/10 01:42:14;;;;;;;9.98;2.20;;;14.20;99.90;;;;;;5028987;28;20049;-72
2023/08/10 01:44:40;;;;;;;8.30;1.90;;;14.20;99.90;;;;;;5062007;28;21992;-73
2023/08/10 01:47:19;;;;;;;6.72;2.38;;;14.20;99.90;;;;;;5047523;28;20079;-72
2023/08/10 01:49:51;;;;;;;6.85;2.22;;;14.10;99.90;;;;;;5030884;28;20063;-72
2023/08/10 01:52:19;;;;;;;5.35;1.98;;;14.10;99.90;;;;;;5031998;28;20634;-72
2023/08/10 01:54:45;;;;;;;8.38;2.38;;;14.10;99.90;;;;;;5032878;28;20050;-72
2023/08/10 01:57:11;;;;;;;7.35;2.33;;;14.10;99.90;;;;;;5037963;28;20068;-72
2023/08/10 01:59:37;;;;;;;6.88;2.10;;;14.00;99.90;;;;;;5034744;28;20056;-72
2023/08/10 02:02:03;;;;;;;5.57;1.92;;;14.00;99.90;;;;;;5038015;28;20600;-72
2023/08/10 02:04:29;;;;;;;7.10;2.13;;;14.00;99.90;;;;;;5018564;28;20051;-72
2023/08/10 02:06:55;;;;;;;6.60;1.80;;;14.00;99.90;;;;;;5037635;28;20077;-72
2023/08/10 02:09:20;;;;;;;6.55;2.20;;;13.90;99.90;;;;;;5038099;28;20037;-72
2023/08/10 02:11:46;;;;;;;6.32;2.20;;;13.90;99.90;;;;;;5035474;28;20047;-72
2023/08/10 02:14:12;;;;;;;6.05;2.53;;;13.90;99.90;;;;;;5038000;28;20844;-72
2023/08/10 02:16:38;;;;;;;6.72;2.00;;;13.90;99.90;;;;;;5022191;28;20041;-73
2023/08/10 02:19:04;;;;;;;8.70;2.05;;;13.80;99.90;;;;;;5067020;28;20053;-72
2023/08/10 02:21:29;;;;;;;6.55;2.25;;;13.80;99.90;;;;;;5049962;28;20048;-72
2023/08/10 02:23:55;;;;;;;7.47;2.03;;;13.80;99.90;;;;;;5061009;28;20421;-72
2023/08/10 02:26:21;;;;;;;7.90;2.40;;;13.40;99.90;;;;;;5031693;28;20041;-72
2023/08/10 02:28:47;;;;;;;5.95;2.00;;;13.70;99.90;;;;;;5048820;28;20056;-72
2023/08/10 02:31:12;;;;;;;6.93;2.10;;;13.70;99.90;;;;;;5039685;28;20496;-72
2023/08/10 02:33:38;;;;;;;8.13;2.38;;;13.70;99.90;;;;;;5024833;28;20055;-72
2023/08/10 02:36:04;;;;;;;8.40;2.15;;;13.70;99.90;;;;;;5023524;28;20566;-72
2023/08/10 02:38:30;;;;;;;6.43;1.95;;;13.60;99.90;;;;;;5038346;28;20727;-72
2023/08/10 02:40:56;;;;;;;8.18;2.20;;;13.60;99.90;;;;;;5038705;28;20072;-72
2023/08/10 02:43:22;;;;;;;10.63;2.45;;;13.60;99.90;;;;;;5027067;28;20719;-72
2023/08/10 02:45:47;;;;;;;5.28;2.00;;;13.60;99.90;;;;;;5041231;28;20045;-72
2023/08/10 02:48:13;;;;;;;9.27;2.35;;;13.60;99.90;;;;;;5037491;28;20040;-72
2023/08/10 02:50:39;;;;;;;6.63;2.47;;;13.60;99.90;;;;;;5040992;28;20045;-72
2023/08/10 02:53:05;;;;;;;7.90;2.25;;;13.60;99.90;;;;;;5036268;28;20034;-72
2023/08/10 02:55:31;;;;;;;5.38;2.30;;;13.50;99.90;;;;;;5036348;28;20581;-72
2023/08/10 02:57:57;;;;;;;9.48;2.40;;;13.50;99.90;;;;;;5041314;28;20037;-71
2023/08/10 03:00:23;;;;;;;5.10;2.03;;;13.50;99.90;;;;;;5023582;28;20044;-71
2023/08/10 03:02:50;;;;;;;7.43;2.17;;;13.40;99.90;;;;;;5037692;28;20064;-71
2023/08/10 03:05:18;;;;;;;7.45;2.17;;;13.50;99.90;;;;;;5039626;28;20049;-71
2023/08/10 03:07:45;;;;;;;6.00;2.10;;;13.50;99.90;;;;;;5021062;28;20041;-72
2023/08/10 03:10:11;;;;;;;5.88;2.28;;;13.50;99.90;;;;;;5038965;28;20106;-72
2023/08/10 03:12:37;;;;;;;7.38;2.33;;;13.50;99.90;;;;;;5070713;28;20124;-72
2023/08/10 03:15:05;;;;;;;4.78;2.00;;;13.50;99.90;;;;;;5064937;28;20468;-72
2023/08/10 03:17:31;;;;;;;6.40;2.08;;;13.50;99.90;;;;;;5039149;28;20769;-71
2023/08/10 03:19:57;;;;;;;6.68;2.00;;;13.50;99.90;;;;;;5040466;28;20560;-72
2023/08/10 03:22:26;;;;;;;5.18;2.45;;;13.50;99.90;;;;;;5040432;28;20037;-72
2023/08/10 03:24:52;;;;;;;6.47;2.25;;;13.50;99.90;;;;;;5037316;28;20045;-71
2023/08/10 03:27:17;;;;;;;4.75;1.83;;;13.50;99.90;;;;;;5074930;28;20107;-72
2023/08/10 03:29:44;;;;;;;7.28;2.05;;;13.50;99.90;;;;;;5037392;28;20037;-71
2023/08/10 03:32:09;;;;;;;5.25;1.83;;;13.50;99.90;;;;;;5037020;28;20048;-72
2023/08/10 03:34:35;;;;;;;6.88;2.33;;;13.50;99.90;;;;;;5038278;28;20501;-71
2023/08/10 03:37:02;;;;;;;13.18;2.28;;;13.50;99.90;;;;;;5022963;28;20053;-71
2023/08/10 03:39:28;;;;;;;6.80;1.95;;;13.50;99.90;;;;;;5041140;28;20390;-72
2023/08/10 03:41:53;;;;;;;5.72;2.28;;;13.50;99.90;;;;;;5041383;28;20115;-72
2023/08/10 03:44:19;;;;;;;7.47;2.55;;;13.50;99.90;;;;;;5020122;28;20080;-71
2023/08/10 03:46:45;;;;;;;8.98;2.40;;;13.50;99.90;;;;;;5067349;28;20072;-71
2023/08/10 03:49:11;;;;;;;5.53;2.30;;;13.50;99.90;;;;;;5050162;28;20038;-70
2023/08/10 03:51:36;;;;;;;6.45;2.50;;;13.50;99.90;;;;;;5049029;28;20390;-71
2023/08/10 03:54:05;;;;;;;6.30;2.60;;;13.50;99.90;;;;;;5041790;28;20128;-70
2023/08/10 03:56:31;;;;;;;10.05;2.28;;;13.50;99.90;;;;;;5036039;28;20049;-71
2023/08/10 03:58:57;;;;;;;7.05;2.00;;;13.50;99.90;;;;;;5039992;28;20090;-70
2023/08/10 04:01:23;;;;;;;7.05;2.10;;;13.50;99.90;;;;;;5036745;28;20052;-71
2023/08/10 04:03:48;;;;;;;5.85;2.08;;;13.50;99.90;;;;;;5017589;28;20050;-72
2023/08/10 04:06:14;;;;;;;7.65;2.17;;;13.50;99.90;;;;;;5039190;28;20394;-71
2023/08/10 04:08:40;;;;;;;5.65;2.00;;;13.50;99.90;;;;;;5037616;28;20052;-71
2023/08/10 04:11:06;;;;;;;8.68;2.13;;;13.50;99.90;;;;;;5016564;28;20406;-71
2023/08/10 04:13:31;;;;;;;7.78;2.30;;;13.50;99.90;;;;;;5036183;28;20048;-71
2023/08/10 04:15:57;;;;;;;6.28;2.03;;;13.50;99.90;;;;;;5036738;28;20037;-71
2023/08/10 04:18:23;;;;;;;4.60;1.80;;;13.50;99.90;;;;;;5033952;28;20177;-71
2023/08/10 04:20:49;;;;;;;5.75;2.10;;;13.50;99.90;;;;;;5031265;28;20044;-71
2023/08/10 04:23:15;;;;;;;8.15;2.10;;;13.50;99.90;;;;;;5036108;28;20049;-71
2023/08/10 04:25:41;;;;;;;5.82;2.25;;;13.50;99.90;;;;;;5041368;28;20056;-71
2023/08/10 04:28:07;;;;;;;5.90;2.05;;;13.50;99.90;;;;;;5026281;28;20557;-71
2023/08/10 04:30:33;;;;;;;6.05;1.85;;;13.60;99.90;;;;;;5036206;28;20048;-71
2023/08/10 04:32:58;;;;;;;5.20;2.20;;;13.60;99.90;;;;;;5034547;28;20040;-71
2023/08/10 04:35:24;;;;;;;5.13;1.80;;;13.50;99.90;;;;;;5033850;28;20053;-71
2023/08/10 04:37:53;;;;;;;5.50;2.03;;;13.50;99.90;;;;;;5047708;28;20037;-71
2023/08/10 04:40:20;;;;;;;5.93;2.10;;;13.60;99.90;;;;;;5045921;28;20059;-72
2023/08/10 04:42:45;;;;;;;6.15;1.83;;;13.50;99.90;;;;;;5034705;28;20415;-72
2023/08/10 04:45:11;;;;;;;6.38;2.08;;;13.50;99.90;;;;;;5030585;28;20044;-72
2023/08/10 04:47:38;;;;;;;4.55;1.90;;;13.60;99.90;;;;;;5030805;28;20049;-72
2023/08/10 04:50:04;;;;;;;6.00;2.20;;;13.50;99.90;;;;;;5034369;28;20476;-72
2023/08/10 04:52:29;;;;;;;9.80;2.28;;;13.60;99.90;;;;;;5039978;28;20135;-72
2023/08/10 04:54:55;;;;;;;6.72;1.88;;;13.60;99.90;;;;;;5031460;28;20076;-71
2023/08/10 04:57:21;;;;;;;4.93;2.08;;;13.60;99.90;;;;;;5020968;28;20049;-72
2023/08/10 04:59:47;;;;;;;5.70;1.95;;;13.60;99.90;;;;;;5034794;28;20151;-72
2023/08/10 05:02:13;;;;;;;7.03;2.00;;;13.60;99.90;;;;;;5043952;28;20102;-72
2023/08/10 05:04:38;;;;;;;9.27;2.33;;;13.60;99.90;;;;;;5029454;28;20509;-72
2023/08/10 05:07:04;;;;;;;5.30;2.05;;;13.60;99.90;;;;;;5046795;28;20037;-72
2023/08/10 05:09:30;;;;;;;6.07;2.15;;;13.60;99.90;;;;;;5046691;28;20084;-73
2023/08/10 05:11:56;;;;;;;6.20;2.00;;;13.60;99.90;;;;;;5047489;28;20083;-72
2023/08/10 05:14:21;;;;;;;6.43;2.17;;;13.60;99.90;;;;;;5029567;28;20076;-73
2023/08/10 05:16:47;;;;;;;9.90;2.80;;;13.60;99.90;;;;;;5045547;28;20409;-72
2023/08/10 05:19:13;;;;;;;7.82;2.28;;;13.60;99.90;;;;;;5046709;28;20049;-72
2023/08/10 05:21:39;;;;;;;5.15;2.35;;;13.70;99.90;;;;;;5034762;28;20115;-72
2023/08/10 05:24:06;;;;;;;6.20;2.30;;;13.70;99.90;;;;;;5044157;28;20045;-72
2023/08/10 05:26:32;;;;;;;8.60;2.50;;;13.70;99.90;;;;;;5043595;28;20049;-72
2023/08/10 05:28:58;;;;;;;6.10;2.53;;;13.70;99.90;;;;;;5027291;28;20041;-71
2023/08/10 05:31:24;;;;;;;17.17;3.03;;;13.70;99.90;;;;;;5044060;28;20675;-72
2023/08/10 05:33:50;;;;;;;8.65;2.58;;;13.70;99.90;;;;;;5043412;28;20853;-71
2023/08/10 05:36:16;;;;;;;7.95;3.30;;;13.80;99.90;;;;;;5044511;28;20033;-72
2023/08/10 05:38:41;;;;;;;7.75;2.75;;;13.80;99.90;;;;;;5045292;28;20037;-72
2023/08/10 05:41:07;;;;;;;9.40;2.35;;;13.80;99.90;;;;;;5072883;28;20056;-72
2023/08/10 05:43:33;;;;;;;7.93;2.38;;;13.80;99.90;;;;;;5045163;28;20087;-72
2023/08/10 05:45:59;;;;;;;7.38;2.20;;;13.80;99.90;;;;;;5045653;28;20049;-72
2023/08/10 05:48:25;;;;;;;9.73;2.03;;;13.60;99.90;;;;;;5046644;28;20029;-73
2023/08/10 05:50:51;;;;;;;7.53;2.92;;;13.90;99.90;;;;;;5045361;28;20565;-72
2023/08/10 05:53:16;;;;;;;9.98;2.97;;;14.00;99.90;;;;;;5045165;28;20053;-72
2023/08/10 05:55:42;;;;;;;9.05;2.95;;;14.00;99.90;;;;;;5048077;28;20090;-72
2023/08/10 05:58:08;;;;;;;7.13;2.90;;;14.00;99.90;;;;;;5049262;28;20045;-72
2023/08/10 06:00:36;;;;;;;8.20;2.85;;;14.00;99.90;;;;;;5032582;28;20041;-73
2023/08/10 06:03:03;;;;;;;7.68;2.88;;;14.10;99.90;;;;;;5049070;28;20531;-72
2023/08/10 06:05:32;;;;;;;7.85;2.78;;;14.10;99.90;;;;;;5033143;28;20464;-72
2023/08/10 06:08:02;;;;;;;6.53;2.13;;;14.20;99.90;;;;;;5049235;28;20088;-73
2023/08/10 06:10:28;;;;;;;7.10;2.70;;;14.20;99.90;;;;;;5049159;28;20128;-73
2023/08/10 06:12:53;;;;;;;7.65;2.55;;;14.30;99.90;;;;;;5048879;28;20057;-73
2023/08/10 06:15:20;;;;;;;7.00;2.17;;;14.30;99.90;;;;;;5048639;28;20049;-73
2023/08/10 06:17:46;;;;;;;5.68;2.17;;;14.30;99.90;;;;;;5048991;28;20041;-73
2023/08/10 06:20:16;;;;;;;3.40;1.58;;;14.40;99.90;;;;;;5050192;28;20494;-73
2023/08/10 06:22:43;;;;;;;7.55;2.00;;;14.50;99.90;;;;;;5049337;28;20228;-73
2023/08/10 06:25:12;;;;;;;8.25;2.30;;;14.50;99.90;;;;;;5048647;28;20052;-73
2023/08/10 06:27:38;;;;;;;14.00;2.40;;;14.50;99.90;;;;;;5050056;28;20116;-73
2023/08/10 06:30:04;;;;;;;10.80;2.10;;;14.50;99.90;;;;;;5048778;28;20187;-73
2023/08/10 06:32:31;;;;;;;8.88;2.13;;;14.60;99.90;;;;;;5050005;28;20053;-73
2023/08/10 06:34:57;;;;;;;12.07;2.13;;;14.60;99.90;;;;;;5031372;28;20052;-71
2023/08/10 06:37:22;;;;;;;7.93;1.73;;;14.70;99.90;;;;;;5048710;28;20049;-71
2023/08/10 06:39:48;;;;;;;9.32;2.10;;;14.70;99.90;;;;;;5049091;28;20041;-72
2023/08/10 06:42:16;;;;;;;8.30;1.80;;;14.90;99.90;;;;;;5048924;28;20036;-72
2023/08/10 06:44:43;;;;;;;6.90;1.70;;;15.10;99.90;;;;;;5050108;28;20106;-72
2023/08/10 06:47:08;;;;;;;9.15;1.83;;;15.20;99.90;;;;;;5048913;28;20055;-73
2023/08/10 06:49:34;;;;;;;9.10;1.70;;;15.30;99.90;;;;;;5049032;28;20049;-72
2023/08/10 06:52:00;;;;;;;7.63;1.70;;;15.50;99.90;;;;;;5049611;28;20045;-72
2023/08/10 06:54:27;;;;;;;6.13;1.58;;;15.50;99.90;;;;;;5048622;28;20541;-73
2023/08/10 06:56:53;;;;;;;5.80;1.27;;;15.50;99.90;;;;;;5048830;28;20111;-72
2023/08/10 06:59:19;;;;;;;6.70;1.27;;;15.50;99.90;;;;;;5048282;28;20041;-72
2023/08/10 07:01:44;;;;;;;7.95;1.50;;;15.50;99.90;;;;;;5048088;28;20049;-72
2023/08/10 07:04:10;;;;;;;5.50;1.35;;;15.50;99.90;;;;;;5047580;28;20599;-72
2023/08/10 07:06:36;;;;;;;4.22;1.05;;;15.50;99.90;;;;;;5048294;28;20044;-72
2023/08/10 07:09:03;;;;;;;8.27;1.23;;;15.50;99.90;;;;;;5043650;28;20052;-72
2023/08/10 07:11:30;;;;;;;6.40;1.60;;;15.50;99.90;;;;;;5041015;28;20513;-72
2023/08/10 07:13:56;;;;;;;6.90;1.40;;;15.50;99.90;;;;;;5031037;28;20158;-72
2023/08/10 07:16:23;;;;;;;8.02;1.00;;;15.50;99.90;;;;;;5047973;28;20064;-72
2023/08/10 07:18:49;;;;;;;5.60;1.33;;;15.60;99.90;;;;;;5047309;28;20053;-72
2023/08/10 07:21:14;;;;;;;6.65;1.30;;;15.60;99.90;;;;;;5047744;28;20047;-72
2023/08/10 07:23:40;;;;;;;6.82;1.10;;;15.70;99.90;;;;;;5047797;28;20079;-72
2023/08/10 07:26:06;;;;;;;5.35;1.17;;;15.80;99.90;;;;;;5047669;28;20043;-72
2023/08/10 07:28:32;;;;;;;5.57;0.90;;;15.80;99.90;;;;;;5047852;28;20139;-73
2023/08/10 07:31:00;;;;;;;5.40;1.23;;;15.90;99.90;;;;;;5047564;28;20555;-73
2023/08/10 07:33:26;;;;;;;10.55;1.20;;;16.00;99.90;;;;;;5047644;28;20641;-72
2023/08/10 07:35:52;;;;;;;5.60;1.17;;;16.00;99.90;;;;;;5047293;28;20041;-72
2023/08/10 07:38:17;;;;;;;6.10;0.98;;;16.00;99.90;;;;;;5048785;28;20044;-72
2023/08/10 07:40:43;;;;;;;5.15;1.13;;;16.10;99.90;;;;;;5030573;28;20405;-72
2023/08/10 07:43:09;;;;;;;9.68;1.13;;;16.10;99.90;;;;;;5047906;28;20057;-72
2023/08/10 07:45:36;;;;;;;5.90;1.10;;;16.10;99.90;;;;;;5048657;28;20052;-73
2023/08/10 07:48:02;;;;;;;8.45;1.63;;;16.10;99.90;;;;;;5047218;28;20041;-73
2023/08/10 07:50:28;;;;;;;8.40;1.25;;;16.10;99.90;;;;;;5048730;28;20097;-74
2023/08/10 07:52:54;;;;;;;9.75;1.63;;;16.20;99.90;;;;;;5047251;28;20052;-74
2023/08/10 07:55:19;;;;;;;6.28;1.25;;;16.20;99.90;;;;;;5048402;28;20048;-74
2023/08/10 07:57:45;;;;;;;6.65;1.50;;;16.20;99.90;;;;;;5047118;28;20414;-74
2023/08/10 08:00:12;;;;;;;4.18;1.10;;;16.20;99.90;;;;;;5047332;28;20044;-75
2023/08/10 08:02:38;;;;;;;8.75;1.15;;;16.20;99.90;;;;;;5047887;28;20515;-74
2023/08/10 08:05:04;;;;;;;3.63;0.82;;;16.20;99.90;;;;;;5047534;28;20049;-74
2023/08/10 08:07:33;;;;;;;6.47;1.23;;;16.20;99.90;;;;;;5046996;28;20053;-74
2023/08/10 08:09:59;;;;;;;8.20;1.77;;;16.20;99.90;;;;;;5046719;28;20040;-74
2023/08/10 08:12:26;;;;;;;5.60;1.10;;;16.30;99.90;;;;;;5046908;28;20048;-73
2023/08/10 08:14:52;;;;;;;5.78;1.40;;;16.30;99.90;;;;;;5045076;28;20383;-73
2023/08/10 08:17:19;;;;;;;7.47;1.30;;;16.30;99.90;;;;;;5046248;28;20803;-73
2023/08/10 08:19:44;;;;;;;4.13;0.85;;;16.30;99.90;;;;;;5047983;28;20041;-72
2023/08/10 08:22:10;;;;;;;6.53;0.98;;;16.40;99.90;;;;;;5046868;28;20410;-73
2023/08/10 08:24:36;;;;;;;11.55;1.30;;;16.40;99.90;;;;;;5046953;28;20041;-74
2023/08/10 08:27:02;;;;;;;7.50;1.10;;;16.40;99.90;;;;;;5046781;28;20041;-74
2023/08/10 08:29:28;;;;;;;10.77;1.35;;;16.50;99.90;;;;;;5046042;28;20051;-74
2023/08/10 08:31:53;;;;;;;5.32;1.33;;;16.50;99.90;;;;;;5046336;28;20045;-72
2023/08/10 08:34:19;;;;;;;7.55;2.03;;;16.50;99.90;;;;;;5046195;28;20110;-74
2023/08/10 08:36:45;;;;;;;4.53;1.20;;;16.50;99.90;;;;;;5046152;28;20043;-74
2023/08/10 08:39:11;;;;;;;8.07;1.20;;;16.60;99.90;;;;;;5045934;28;20036;-72
2023/08/10 08:41:38;;;;;;;7.97;1.42;;;16.60;99.90;;;;;;5029995;28;20806;-73
2023/08/10 08:44:06;;;;;;;6.13;1.27;;;16.60;99.90;;;;;;5029539;28;20128;-73
2023/08/10 08:46:33;;;;;;;6.70;1.40;;;16.60;99.90;;;;;;5029509;28;20391;-73
2023/08/10 08:49:04;;;;;;;5.68;1.10;;;16.60;99.90;;;;;;5046023;28;20589;-73
2023/08/10 08:51:31;;;;;;;6.07;1.23;;;16.60;99.90;;;;;;5045860;28;20071;-72
2023/08/10 08:54:00;;;;;;;8.50;1.30;;;16.70;99.90;;;;;;5046007;28;20445;-73
2023/08/10 08:56:26;;;;;;;7.32;1.10;;;16.70;99.90;;;;;;5047489;28;20382;-73
2023/08/10 08:58:52;;;;;;;6.03;1.02;;;16.70;99.90;;;;;;5044176;28;20402;-72
2023/08/10 09:01:19;;;;;;;3.10;0.82;;;16.80;99.90;;;;;;5045853;28;20037;-72
2023/08/10 09:03:45;;;;;;;4.22;1.10;;;16.80;99.90;;;;;;5029013;28;20043;-72
2023/08/10 09:06:11;;;;;;;7.18;1.45;;;16.80;99.90;;;;;;5046118;28;20143;-72
2023/08/10 09:08:38;;;;;;;9.05;1.27;;;16.90;99.90;;;;;;5029706;28;20044;-72
2023/08/10 09:11:05;;;;;;;7.97;1.27;;;16.90;99.90;;;;;;5046030;28;20048;-72
2023/08/10 09:13:32;;;;;;;3.83;1.05;;;16.90;99.90;;;;;;5029465;28;20056;-73
2023/08/10 09:16:12;;;;;;;7.53;1.40;;;16.90;99.90;;;;;;5044453;28;20036;-72
2023/08/10 09:18:43;;;;;;;7.20;1.38;;;17.00;99.90;;;;;;5044571;28;20616;-73
2023/08/10 09:21:13;;;;;;;4.75;1.10;;;17.00;99.90;;;;;;5045642;28;20067;-73
2023/08/10 09:23:40;;;;;;;3.85;1.10;;;17.00;99.90;;;;;;5045699;28;20049;-73
2023/08/10 09:26:10;;;;;;;5.03;1.00;;;17.00;99.90;;;;;;5032143;28;20182;-73
2023/08/10 09:28:39;;;;;;;2.78;0.93;;;17.10;99.90;;;;;;5047167;28;20057;-73
2023/08/10 09:31:09;;;;;;;3.38;0.90;;;17.10;99.90;;;;;;5049072;28;20040;-73
2023/08/10 09:33:36;;;;;;;6.05;1.65;;;17.10;99.90;;;;;;5050120;28;20044;-73
2023/08/10 09:36:04;;;;;;;6.00;1.10;;;17.20;99.90;;;;;;5049069;28;20144;-73
2023/08/10 09:38:31;;;;;;;3.67;1.10;;;17.20;99.90;;;;;;5046954;28;21002;-73
2023/08/10 09:41:13;;;;;;;7.20;1.30;;;17.20;99.90;;;;;;5044281;28;20041;-71
2023/08/10 09:43:41;;;;;;;4.70;1.10;;;17.20;99.90;;;;;;5045208;28;20040;-71
2023/08/10 09:46:09;;;;;;;5.65;1.08;;;17.20;99.90;;;;;;5048217;28;20116;-71
2023/08/10 09:48:37;;;;;;;3.85;1.23;;;17.20;99.90;;;;;;5029518;28;20048;-71
2023/08/10 09:51:04;;;;;;;5.28;1.15;;;17.30;99.90;;;;;;5048748;28;20560;-71
2023/08/10 09:53:32;;;;;;;4.38;0.98;;;17.30;99.90;;;;;;5048317;28;20080;-71
2023/08/10 09:55:58;;;;;;;6.68;1.40;;;17.30;99.90;;;;;;5045491;28;20037;-71
2023/08/10 09:58:24;;;;;;;5.55;1.10;;;17.40;99.90;;;;;;5044408;28;20042;-71
2023/08/10 10:00:50;;;;;;;5.57;1.23;;;17.40;99.90;;;;;;5046622;28;20433;-73
2023/08/10 10:03:17;;;;;;;5.72;1.02;;;17.40;99.90;;;;;;5031831;28;20051;-74
2023/08/10 10:05:43;;;;;;;10.23;2.28;;;17.40;99.90;;;;;;5048815;28;20049;-73
2023/08/10 10:08:14;;;;;;;5.57;1.20;;;17.40;99.90;;;;;;5049125;28;20490;-74
2023/08/10 10:10:42;;;;;;;3.28;1.10;;;17.50;99.90;;;;;;5046709;28;20421;-75
2023/08/10 10:13:12;;;;;;;6.88;1.20;;;17.50;99.90;;;;;;5028131;28;20080;-75
2023/08/10 10:15:40;;;;;;;6.03;1.30;;;17.50;99.90;;;;;;5040800;28;20414;-75
2023/08/10 10:18:08;;;;;;;3.95;1.13;;;17.50;99.90;;;;;;5040795;28;20045;-74
2023/08/10 10:20:38;;;;;;;8.95;1.80;;;17.50;99.90;;;;;;5045523;28;20036;-74
2023/08/10 10:23:04;;;;;;;6.57;1.20;;;17.50;99.90;;;;;;5045583;28;20122;-72
2023/08/10 10:25:29;;;;;;;7.60;1.40;;;17.50;99.90;;;;;;5045338;28;20061;-73
2023/08/10 10:27:56;;;;;;;6.05;1.10;;;17.50;99.90;;;;;;5046646;28;20112;-75
2023/08/10 10:30:24;;;;;;;6.80;1.30;;;17.60;99.90;;;;;;5028546;28;20647;-71
2023/08/10 10:32:51;;;;;;;8.98;1.20;;;17.60;99.90;;;;;;5045065;28;20041;-72
2023/08/10 10:35:23;;;;;;;5.10;1.52;;;17.60;99.90;;;;;;5047577;28;20402;-71
2023/08/10 10:37:56;;;;;;;7.38;1.67;;;17.60;99.90;;;;;;5040036;28;20150;-72
2023/08/10 10:40:23;;;;;;;6.90;1.40;;;17.70;99.90;;;;;;5043319;28;20033;-72
2023/08/10 10:43:01;;;;;;;9.05;1.35;;;17.70;99.90;;;;;;5044455;28;20179;-72
2023/08/10 10:45:27;;;;;;;6.90;1.30;;;17.80;99.90;;;;;;5040546;28;20095;-72
2023/08/10 10:47:55;;;;;;;5.38;1.20;;;17.80;99.90;;;;;;5044385;28;20052;-72
2023/08/10 10:50:29;;;;;;;7.13;1.27;;;17.80;99.90;;;;;;5046401;28;20052;-72
2023/08/10 10:53:03;;;;;;;4.10;1.10;;;17.90;99.90;;;;;;5027027;28;20048;-72
2023/08/10 10:55:41;;;;;;;5.63;1.33;;;17.90;99.90;;;;;;5029515;28;20182;-74
2023/08/10 10:58:08;;;;;;;3.95;1.10;;;17.90;99.90;;;;;;5044852;28;20039;-74
2023/08/10 11:00:36;;;;;;;7.70;1.10;;;17.90;99.90;;;;;;5039663;28;20044;-74
2023/08/10 11:03:10;;;;;;;6.15;1.40;;;17.90;99.90;;;;;;5044291;28;20572;-74
2023/08/10 11:05:36;;;;;;;8.13;1.38;;;17.90;99.90;;;;;;5030936;28;20715;-74
2023/08/10 11:08:03;;;;;;;6.53;1.40;;;18.00;99.90;;;;;;5041487;28;20047;-74
2023/08/10 11:10:40;;;;;;;4.68;1.27;;;18.00;99.90;;;;;;5045574;28;20576;-75
2023/08/10 11:13:07;;;;;;;6.32;1.65;;;18.00;99.90;;;;;;5045876;28;20049;-74
2023/08/10 11:15:36;;;;;;;6.20;1.50;;;18.00;99.90;;;;;;5044397;28;20089;-75
2023/08/10 11:18:09;;;;;;;6.90;2.15;;;18.10;99.90;;;;;;5040826;28;20136;-74
2023/08/10 11:20:41;;;;;;;6.32;1.70;;;18.10;99.90;;;;;;5059332;28;20037;-75
2023/08/10 11:23:06;;;;;;;6.68;1.50;;;18.10;99.90;;;;;;5046487;28;20075;-74
2023/08/10 11:25:45;;;;;;;6.53;1.70;;;18.10;99.90;;;;;;5023021;28;20049;-74
2023/08/10 11:28:11;;;;;;;8.57;1.60;;;18.10;99.90;;;;;;5031878;28;20045;-74
2023/08/10 11:30:37;;;;;;;9.85;1.70;;;18.20;99.90;;;;;;5038267;28;20051;-74
2023/08/10 11:33:03;;;;;;;9.23;1.70;;;18.20;99.90;;;;;;5042700;28;20596;-72
2023/08/10 11:35:29;;;;;;;9.55;1.85;;;18.30;99.90;;;;;;5039231;28;20057;-72
2023/08/10 11:37:55;;;;;;;6.65;1.70;;;18.30;99.90;;;;;;5035796;28;20725;-71
2023/08/10 11:40:22;;;;;;;8.13;1.65;;;18.30;99.90;;;;;;5043439;28;20068;-71
2023/08/10 11:42:52;;;;;;;9.60;1.90;;;18.30;99.90;;;;;;5040794;28;20854;-70
2023/08/10 11:45:20;;;;;;;6.82;1.75;;;18.30;99.90;;;;;;5041026;28;20053;-71
2023/08/10 11:47:56;;;;;;;5.20;1.48;;;18.40;99.90;;;;;;5021114;28;20041;-71
2023/08/10 11:50:22;;;;;;;7.88;1.80;;;18.40;99.90;;;;;;5041990;28;20057;-71
2023/08/10 11:52:52;;;;;;;5.75;1.70;;;18.40;99.90;;;;;;5020757;28;20045;-71
2023/08/10 11:55:19;;;;;;;6.97;2.10;;;18.40;99.90;;;;;;5038008;28;20052;-71
2023/08/10 11:57:51;;;;;;;6.70;1.80;;;18.40;99.90;;;;;;5034989;28;20572;-71
2023/08/10 12:00:33;;;;;;;6.60;1.80;;;18.50;99.90;;;;;;5041964;28;20072;-73
2023/08/10 12:03:22;;;;;;;6.53;1.90;;;18.50;99.90;;;;;;5025570;28;20049;-72
2023/08/10 12:05:50;;;;;;;10.65;2.40;;;18.50;99.90;;;;;;5042308;28;20046;-74
2023/08/10 12:08:18;;;;;;;9.68;1.98;;;18.50;99.90;;;;;;5040295;28;20037;-74
2023/08/10 12:11:00;;;;;;;8.40;2.60;;;18.60;99.90;;;;;;5039888;28;20080;-74
2023/08/10 12:13:26;;;;;;;9.95;2.30;;;18.60;99.90;;;;;;5036185;28;20037;-75
2023/08/10 12:15:53;;;;;;;6.28;1.80;;;18.50;99.90;;;;;;5038312;28;20040;-75
2023/08/10 12:18:21;;;;;;;6.65;1.92;;;18.60;99.90;;;;;;5019686;28;20049;-74
2023/08/10 12:20:48;;;;;;;10.48;1.98;;;18.50;99.90;;;;;;5039654;28;20052;-75
2023/08/10 12:23:15;;;;;;;7.68;2.13;;;18.50;99.90;;;;;;5042827;28;20109;-75
2023/08/10 12:25:46;;;;;;;7.68;1.80;;;18.50;99.90;;;;;;5044094;28;20044;-75
2023/08/10 12:28:13;;;;;;;6.65;1.75;;;18.50;99.90;;;;;;5040068;28;20064;-74
2023/08/10 12:30:39;;;;;;;5.70;2.30;;;18.60;99.90;;;;;;5042572;28;20045;-74
2023/08/10 12:33:11;;;;;;;8.70;2.67;;;18.50;99.90;;;;;;5041641;28;20048;-75
2023/08/10 12:35:37;;;;;;;7.10;2.20;;;18.50;99.90;;;;;;5046395;28;20049;-74
2023/08/10 12:38:03;;;;;;;10.55;2.13;;;18.60;99.90;;;;;;5039428;28;20040;-74
2023/08/10 12:40:30;;;;;;;7.75;2.55;;;18.50;99.90;;;;;;5039077;28;20070;-74
2023/08/10 12:43:01;;;;;;;7.43;2.65;;;18.60;99.90;;;;;;5057607;28;20094;-75
2023/08/10 12:45:27;;;;;;;8.95;2.83;;;18.50;99.90;;;;;;5043648;28;20536;-74